sensor_id;sensor_type;location;lat;lon;timestamp;temperature;humidity
8896;DHT22;4484;48.928;10.066;2022-12-20T00:01:27;1.30;99.90
8896;DHT22;4484;48.928;10.066;2022-12-20T00:03:56;1.30;99.90
8896;DHT22;4484;48.928;10.066;2022-12-20T00:06:24;1.30;99.90
8896;DHT22;4484;48.928;10.066;2022-12-20T00:08:55;1.30;99.90
8896;DHT22;4484;48.928;10.066;2022-12-20T00:11:23;1.30;99.90
8896;DHT22;4484;48.928;10.066;2022-12-20T00:13:52;1.30;99.90
8896;DHT22;4484;48.928;10.066;2022-12-20T00:16:25;1.30;99.90
8896;DHT22;4484;48.928;10.066;2022-12-20T00:18:59;1.30;99.90
8896;DHT22;4484;48.928;10.066;2022-12-20T00:21:28;1.30;99.90
8896;DHT22;4484;48.928;10.066;2022-12-20T00:23:56;1.30;99.90
8896;DHT22;4484;48.928;10.066;2022-12-20T00:26:26;1.30;99.90
8896;DHT22;4484;48.928;10.066;2022-12-20T00:28:54;1.30;99.90
8896;DHT22;4484;48.928;10.066;2022-12-20T00:31:23;1.30;99.90
8896;DHT22;4484;48.928;10.066;2022-12-20T00:33:53;1.30;99.90
8896;DHT22;4484;48.928;10.066;2022-12-20T00:36:21;1.30;99.90
8896;DHT22;4484;48.928;10.066;2022-12-20T00:38:51;1.30;99.90
8896;DHT22;4484;48.928;10.066;2022-12-20T00:41:20;1.30;99.90
8896;DHT22;4484;48.928;10.066;2022-12-20T00:43:50;1.30;99.90
8896;DHT22;4484;48.928;10.066;2022-12-20T00:46:18;1.30;99.90
8896;DHT22;4484;48.928;10.066;2022-12-20T00:48:45;1.20;99.90
8896;DHT22;4484;48.928;10.066;2022-12-20T00:51:15;1.20;99.90
8896;DHT22;4484;48.928;10.066;2022-12-20T00:53:42;1.20;99.90
8896;DHT22;4484;48.928;10.066;2022-12-20T00:56:10;1.20;99.90
8896;DHT22;4484;48.928;10.066;2022-12-20T00:58:40;1.20;99.90
8896;DHT22;4484;48.928;10.066;2022-12-20T01:01:24;1.20;99.90
8896;DHT22;4484;48.928;10.066;2022-12-20T01:03:53;1.20;99.90
8896;DHT22;4484;48.928;10.066;2022-12-20T01:06:21;1.20;99.90
8896;DHT22;4484;48.928;10.066;2022-12-20T01:08:48;1.20;99.90
8896;DHT22;4484;48.928;10.066;2022-12-20T01:11:18;1.10;99.90
8896;DHT22;4484;48.928;10.066;2022-12-20T01:13:50;1.20;99.90
8896;DHT22;4484;48.928;10.066;2022-12-20T01:16:27;1.10;99.90
8896;DHT22;4484;48.928;10.066;2022-12-20T01:18:57;1.20;99.90
8896;DHT22;4484;48.928;10.066;2022-12-20T01:21:25;1.20;99.90
8896;DHT22;4484;48.928;10.066;2022-12-20T01:23:56;1.10;99.90
8896;DHT22;4484;48.928;10.066;2022-12-20T01:26:25;1.10;99.90
8896;DHT22;4484;48.928;10.066;2022-12-20T01:28:55;1.10;99.90
8896;DHT22;4484;48.928;10.066;2022-12-20T01:31:23;1.10;99.90
8896;DHT22;4484;48.928;10.066;2022-12-20T01:33:50;1.10;99.90
8896;DHT22;4484;48.928;10.066;2022-12-20T01:36:25;1.10;99.90
8896;DHT22;4484;48.928;10.066;2022-12-20T01:38:56;1.10;99.90
8896;DHT22;4484;48.928;10.066;2022-12-20T01:41:26;1.10;99.90
8896;DHT22;4484;48.928;10.066;2022-12-20T01:46:52;1.10;99.90
8896;DHT22;4484;48.928;10.066;2022-12-20T01:52:03;1.10;99.90
8896;DHT22;4484;48.928;10.066;2022-12-20T01:57:05;1.10;99.90
8896;DHT22;4484;48.928;10.066;2022-12-20T01:59:36;1.10;99.90
8896;DHT22;4484;48.928;10.066;2022-12-20T02:02:07;1.10;99.90
8896;DHT22;4484;48.928;10.066;2022-12-20T02:04:35;1.10;99.90
8896;DHT22;4484;48.928;10.066;2022-12-20T02:07:04;1.10;99.90
8896;DHT22;4484;48.928;10.066;2022-12-20T02:09:34;1.10;99.90
8896;DHT22;4484;48.928;10.066;2022-12-20T02:12:16;1.10;99.90
8896;DHT22;4484;48.928;10.066;2022-12-20T02:29:22;1.10;99.90
8896;DHT22;4484;48.928;10.066;2022-12-20T02:34:26;1.00;99.90
8896;DHT22;4484;48.928;10.066;2022-12-20T02:36:56;1.10;99.90
8896;DHT22;4484;48.928;10.066;2022-12-20T02:39:30;1.10;99.90
8896;DHT22;4484;48.928;10.066;2022-12-20T02:42:05;1.20;99.90
8896;DHT22;4484;48.928;10.066;2022-12-20T02:44:35;1.20;99.90
8896;DHT22;4484;48.928;10.066;2022-12-20T02:47:39;1.30;99.90
8896;DHT22;4484;48.928;10.066;2022-12-20T02:50:09;1.50;99.90
8896;DHT22;4484;48.928;10.066;2022-12-20T02:52:37;1.60;99.90
8896;DHT22;4484;48.928;10.066;2022-12-20T02:55:40;1.70;99.90
8896;DHT22;4484;48.928;10.066;2022-12-20T02:58:23;1.80;99.90
8896;DHT22;4484;48.928;10.066;2022-12-20T03:00:56;1.80;99.90
8896;DHT22;4484;48.928;10.066;2022-12-20T03:03:26;1.80;99.90
8896;DHT22;4484;48.928;10.066;2022-12-20T03:05:54;1.70;99.90
8896;DHT22;4484;48.928;10.066;2022-12-20T03:08:23;1.70;99.90
8896;DHT22;4484;48.928;10.066;2022-12-20T03:10:51;1.70;99.90
8896;DHT22;4484;48.928;10.066;2022-12-20T03:13:19;1.70;99.90
8896;DHT22;4484;48.928;10.066;2022-12-20T03:15:53;1.70;99.90
8896;DHT22;4484;48.928;10.066;2022-12-20T03:18:20;1.70;99.90
8896;DHT22;4484;48.928;10.066;2022-12-20T03:20:48;1.80;99.90
8896;DHT22;4484;48.928;10.066;2022-12-20T03:23:15;1.80;99.90
8896;DHT22;4484;48.928;10.066;2022-12-20T03:25:44;1.80;99.90
8896;DHT22;4484;48.928;10.066;2022-12-20T03:28:18;1.70;99.90
8896;DHT22;4484;48.928;10.066;2022-12-20T03:30:45;1.70;99.90
8896;DHT22;4484;48.928;10.066;2022-12-20T03:33:13;1.70;99.90
8896;DHT22;4484;48.928;10.066;2022-12-20T03:35:41;1.60;99.90
8896;DHT22;4484;48.928;10.066;2022-12-20T03:38:09;1.60;99.90
8896;DHT22;4484;48.928;10.066;2022-12-20T03:40:36;1.50;99.90
8896;DHT22;4484;48.928;10.066;2022-12-20T03:43:03;1.50;99.90
8896;DHT22;4484;48.928;10.066;2022-12-20T03:45:30;1.40;99.90
8896;DHT22;4484;48.928;10.066;2022-12-20T03:47:57;1.40;99.90
8896;DHT22;4484;48.928;10.066;2022-12-20T03:50:33;1.30;99.90
8896;DHT22;4484;48.928;10.066;2022-12-20T03:53:02;1.20;99.90
8896;DHT22;4484;48.928;10.066;2022-12-20T03:55:30;1.10;99.90
8896;DHT22;4484;48.928;10.066;2022-12-20T03:57:57;1.10;99.90
8896;DHT22;4484;48.928;10.066;2022-12-20T04:00:29;1.00;99.90
8896;DHT22;4484;48.928;10.066;2022-12-20T04:03:13;1.00;99.90
8896;DHT22;4484;48.928;10.066;2022-12-20T04:05:40;1.00;99.90
8896;DHT22;4484;48.928;10.066;2022-12-20T04:08:09;1.00;99.90
8896;DHT22;4484;48.928;10.066;2022-12-20T04:10:35;1.10;99.90
8896;DHT22;4484;48.928;10.066;2022-12-20T04:13:25;1.20;99.90
8896;DHT22;4484;48.928;10.066;2022-12-20T04:15:52;1.30;99.90
8896;DHT22;4484;48.928;10.066;2022-12-20T04:18:30;1.50;99.90
8896;DHT22;4484;48.928;10.066;2022-12-20T04:21:03;1.50;99.90
8896;DHT22;4484;48.928;10.066;2022-12-20T04:23:33;1.60;99.90
8896;DHT22;4484;48.928;10.066;2022-12-20T04:26:01;1.60;99.90
8896;DHT22;4484;48.928;10.066;2022-12-20T04:28:31;1.50;99.90
8896;DHT22;4484;48.928;10.066;2022-12-20T04:30:59;1.50;99.90
8896;DHT22;4484;48.928;10.066;2022-12-20T04:33:29;1.40;99.90
8896;DHT22;4484;48.928;10.066;2022-12-20T04:35:56;1.40;99.90
8896;DHT22;4484;48.928;10.066;2022-12-20T04:38:24;1.30;99.90
8896;DHT22;4484;48.928;10.066;2022-12-20T04:40:53;1.20;99.90
8896;DHT22;4484;48.928;10.066;2022-12-20T04:43:23;1.10;99.90
8896;DHT22;4484;48.928;10.066;2022-12-20T04:45:54;1.00;99.90
8896;DHT22;4484;48.928;10.066;2022-12-20T04:48:26;1.00;99.90
8896;DHT22;4484;48.928;10.066;2022-12-20T04:51:13;1.00;99.90
8896;DHT22;4484;48.928;10.066;2022-12-20T04:53:42;1.00;99.90
8896;DHT22;4484;48.928;10.066;2022-12-20T04:56:32;1.10;99.90
8896;DHT22;4484;48.928;10.066;2022-12-20T04:59:05;1.20;99.90
8896;DHT22;4484;48.928;10.066;2022-12-20T05:01:32;1.30;99.90
8896;DHT22;4484;48.928;10.066;2022-12-20T05:04:00;1.40;99.90
8896;DHT22;4484;48.928;10.066;2022-12-20T05:06:31;1.60;99.90
8896;DHT22;4484;48.928;10.066;2022-12-20T05:08:58;1.80;99.90
8896;DHT22;4484;48.928;10.066;2022-12-20T05:11:26;1.90;99.90
8896;DHT22;4484;48.928;10.066;2022-12-20T05:13:53;2.00;99.90
8896;DHT22;4484;48.928;10.066;2022-12-20T05:16:20;2.20;99.90
8896;DHT22;4484;48.928;10.066;2022-12-20T05:18:48;2.30;99.90
8896;DHT22;4484;48.928;10.066;2022-12-20T05:21:17;2.40;99.90
8896;DHT22;4484;48.928;10.066;2022-12-20T05:24:05;2.50;99.90
8896;DHT22;4484;48.928;10.066;2022-12-20T05:27:10;2.60;99.90
8896;DHT22;4484;48.928;10.066;2022-12-20T05:29:37;2.60;99.90
8896;DHT22;4484;48.928;10.066;2022-12-20T05:32:04;2.70;99.90
8896;DHT22;4484;48.928;10.066;2022-12-20T05:34:34;2.80;99.90
8896;DHT22;4484;48.928;10.066;2022-12-20T05:37:01;2.80;99.90
8896;DHT22;4484;48.928;10.066;2022-12-20T05:39:30;2.90;99.90
8896;DHT22;4484;48.928;10.066;2022-12-20T05:42:02;2.80;99.90
8896;DHT22;4484;48.928;10.066;2022-12-20T05:44:30;2.80;99.90
8896;DHT22;4484;48.928;10.066;2022-12-20T05:46:56;2.80;99.90
8896;DHT22;4484;48.928;10.066;2022-12-20T05:49:27;2.80;99.90
8896;DHT22;4484;48.928;10.066;2022-12-20T05:51:55;2.90;99.90
8896;DHT22;4484;48.928;10.066;2022-12-20T05:54:25;2.90;99.90
8896;DHT22;4484;48.928;10.066;2022-12-20T05:57:13;2.90;99.90
8896;DHT22;4484;48.928;10.066;2022-12-20T05:59:43;2.80;99.90
8896;DHT22;4484;48.928;10.066;2022-12-20T06:02:19;2.90;99.90
8896;DHT22;4484;48.928;10.066;2022-12-20T06:04:54;2.90;99.90
8896;DHT22;4484;48.928;10.066;2022-12-20T06:07:22;3.00;99.90
8896;DHT22;4484;48.928;10.066;2022-12-20T06:09:55;3.10;99.90
8896;DHT22;4484;48.928;10.066;2022-12-20T06:12:28;3.20;99.90
8896;DHT22;4484;48.928;10.066;2022-12-20T06:14:55;3.30;99.90
8896;DHT22;4484;48.928;10.066;2022-12-20T06:17:22;3.30;99.90
8896;DHT22;4484;48.928;10.066;2022-12-20T06:19:50;3.30;99.90
8896;DHT22;4484;48.928;10.066;2022-12-20T06:22:20;3.30;99.90
8896;DHT22;4484;48.928;10.066;2022-12-20T06:24:51;3.20;99.90
8896;DHT22;4484;48.928;10.066;2022-12-20T06:27:24;3.20;99.90
8896;DHT22;4484;48.928;10.066;2022-12-20T06:29:59;3.30;99.90
8896;DHT22;4484;48.928;10.066;2022-12-20T06:32:33;3.20;99.90
8896;DHT22;4484;48.928;10.066;2022-12-20T06:35:01;3.20;99.90
8896;DHT22;4484;48.928;10.066;2022-12-20T06:37:31;3.20;99.90
8896;DHT22;4484;48.928;10.066;2022-12-20T06:39:58;3.20;99.90
8896;DHT22;4484;48.928;10.066;2022-12-20T06:42:26;3.20;99.90
8896;DHT22;4484;48.928;10.066;2022-12-20T06:44:54;3.20;99.90
8896;DHT22;4484;48.928;10.066;2022-12-20T06:47:22;3.10;99.90
8896;DHT22;4484;48.928;10.066;2022-12-20T06:49:49;3.20;99.90
8896;DHT22;4484;48.928;10.066;2022-12-20T06:52:21;3.10;99.90
8896;DHT22;4484;48.928;10.066;2022-12-20T06:54:50;3.20;99.90
8896;DHT22;4484;48.928;10.066;2022-12-20T06:57:22;3.20;99.90
8896;DHT22;4484;48.928;10.066;2022-12-20T06:59:50;3.30;99.90
8896;DHT22;4484;48.928;10.066;2022-12-20T07:02:18;3.30;99.90
8896;DHT22;4484;48.928;10.066;2022-12-20T07:04:45;3.30;99.90
8896;DHT22;4484;48.928;10.066;2022-12-20T07:07:14;3.30;99.90
8896;DHT22;4484;48.928;10.066;2022-12-20T07:09:42;3.40;99.90
8896;DHT22;4484;48.928;10.066;2022-12-20T07:12:10;3.30;99.90
8896;DHT22;4484;48.928;10.066;2022-12-20T07:14:37;3.40;99.90
8896;DHT22;4484;48.928;10.066;2022-12-20T07:17:04;3.40;99.90
8896;DHT22;4484;48.928;10.066;2022-12-20T07:19:32;3.40;99.90
8896;DHT22;4484;48.928;10.066;2022-12-20T07:22:00;3.40;99.90
8896;DHT22;4484;48.928;10.066;2022-12-20T07:24:28;3.40;99.90
8896;DHT22;4484;48.928;10.066;2022-12-20T07:26:55;3.40;99.90
8896;DHT22;4484;48.928;10.066;2022-12-20T07:29:21;3.40;99.90
8896;DHT22;4484;48.928;10.066;2022-12-20T07:31:48;3.50;99.90
8896;DHT22;4484;48.928;10.066;2022-12-20T07:34:15;3.40;99.90
8896;DHT22;4484;48.928;10.066;2022-12-20T07:36:43;3.40;99.90
8896;DHT22;4484;48.928;10.066;2022-12-20T07:39:10;3.40;99.90
8896;DHT22;4484;48.928;10.066;2022-12-20T07:41:36;3.40;99.90
8896;DHT22;4484;48.928;10.066;2022-12-20T07:44:03;3.40;99.90
8896;DHT22;4484;48.928;10.066;2022-12-20T07:46:32;3.40;99.90
8896;DHT22;4484;48.928;10.066;2022-12-20T07:49:00;3.50;99.90
8896;DHT22;4484;48.928;10.066;2022-12-20T07:51:32;3.50;99.90
8896;DHT22;4484;48.928;10.066;2022-12-20T07:55:04;3.60;99.90
8896;DHT22;4484;48.928;10.066;2022-12-20T07:57:16;3.60;99.90
8896;DHT22;4484;48.928;10.066;2022-12-20T07:59:48;3.70;99.90
8896;DHT22;4484;48.928;10.066;2022-12-20T08:05:26;3.80;99.90
8896;DHT22;4484;48.928;10.066;2022-12-20T08:08:18;3.90;99.90
8896;DHT22;4484;48.928;10.066;2022-12-20T08:10:45;4.00;99.90
8896;DHT22;4484;48.928;10.066;2022-12-20T08:13:12;4.10;99.90
8896;DHT22;4484;48.928;10.066;2022-12-20T08:15:41;4.20;99.90
8896;DHT22;4484;48.928;10.066;2022-12-20T08:18:10;4.20;99.90
8896;DHT22;4484;48.928;10.066;2022-12-20T08:20:36;4.30;99.90
8896;DHT22;4484;48.928;10.066;2022-12-20T08:23:04;4.30;99.90
8896;DHT22;4484;48.928;10.066;2022-12-20T08:25:33;4.40;99.90
8896;DHT22;4484;48.928;10.066;2022-12-20T08:28:07;4.40;99.90
8896;DHT22;4484;48.928;10.066;2022-12-20T08:30:34;4.40;99.90
8896;DHT22;4484;48.928;10.066;2022-12-20T08:33:01;4.40;99.90
8896;DHT22;4484;48.928;10.066;2022-12-20T08:35:28;4.50;99.90
8896;DHT22;4484;48.928;10.066;2022-12-20T08:37:55;4.50;99.90
8896;DHT22;4484;48.928;10.066;2022-12-20T08:40:22;4.50;99.90
8896;DHT22;4484;48.928;10.066;2022-12-20T08:42:49;4.50;99.90
8896;DHT22;4484;48.928;10.066;2022-12-20T08:45:17;4.50;99.90
8896;DHT22;4484;48.928;10.066;2022-12-20T08:47:46;4.40;99.90
8896;DHT22;4484;48.928;10.066;2022-12-20T08:50:13;4.40;99.90
8896;DHT22;4484;48.928;10.066;2022-12-20T08:52:41;4.40;99.90
8896;DHT22;4484;48.928;10.066;2022-12-20T08:55:07;4.40;99.90
8896;DHT22;4484;48.928;10.066;2022-12-20T08:57:39;4.30;99.90
8896;DHT22;4484;48.928;10.066;2022-12-20T09:00:06;4.30;99.90
8896;DHT22;4484;48.928;10.066;2022-12-20T09:02:34;4.20;99.90
8896;DHT22;4484;48.928;10.066;2022-12-20T09:05:02;4.20;99.90
8896;DHT22;4484;48.928;10.066;2022-12-20T09:07:30;4.20;99.90
8896;DHT22;4484;48.928;10.066;2022-12-20T09:09:57;4.20;99.90
8896;DHT22;4484;48.928;10.066;2022-12-20T09:12:24;4.30;99.90
8896;DHT22;4484;48.928;10.066;2022-12-20T09:14:51;4.30;99.90
8896;DHT22;4484;48.928;10.066;2022-12-20T09:17:18;4.30;99.90
8896;DHT22;4484;48.928;10.066;2022-12-20T09:19:45;4.40;99.90
8896;DHT22;4484;48.928;10.066;2022-12-20T09:22:13;4.50;99.90
8896;DHT22;4484;48.928;10.066;2022-12-20T09:24:41;4.50;99.90
8896;DHT22;4484;48.928;10.066;2022-12-20T09:27:07;4.50;99.90
8896;DHT22;4484;48.928;10.066;2022-12-20T09:29:36;4.60;99.90
8896;DHT22;4484;48.928;10.066;2022-12-20T09:32:04;4.70;99.90
8896;DHT22;4484;48.928;10.066;2022-12-20T09:34:32;4.70;99.90
8896;DHT22;4484;48.928;10.066;2022-12-20T09:36:59;4.70;99.90
8896;DHT22;4484;48.928;10.066;2022-12-20T09:39:26;4.70;99.90
8896;DHT22;4484;48.928;10.066;2022-12-20T09:41:53;4.80;99.90
8896;DHT22;4484;48.928;10.066;2022-12-20T09:44:30;4.90;99.90
8896;DHT22;4484;48.928;10.066;2022-12-20T09:47:06;4.90;99.90
8896;DHT22;4484;48.928;10.066;2022-12-20T09:49:40;5.00;99.90
8896;DHT22;4484;48.928;10.066;2022-12-20T10:00:17;5.10;99.90
8896;DHT22;4484;48.928;10.066;2022-12-20T10:02:44;5.20;99.90
8896;DHT22;4484;48.928;10.066;2022-12-20T10:05:38;5.30;99.90
8896;DHT22;4484;48.928;10.066;2022-12-20T10:08:31;5.40;99.90
8896;DHT22;4484;48.928;10.066;2022-12-20T10:14:07;5.70;99.90
8896;DHT22;4484;48.928;10.066;2022-12-20T10:16:52;5.80;99.90
8896;DHT22;4484;48.928;10.066;2022-12-20T10:19:50;5.90;99.90
8896;DHT22;4484;48.928;10.066;2022-12-20T10:22:17;6.00;99.90
8896;DHT22;4484;48.928;10.066;2022-12-20T10:25:19;6.10;99.90
8896;DHT22;4484;48.928;10.066;2022-12-20T10:27:48;6.20;99.90
8896;DHT22;4484;48.928;10.066;2022-12-20T10:30:23;6.20;99.90
8896;DHT22;4484;48.928;10.066;2022-12-20T10:32:52;6.20;99.90
8896;DHT22;4484;48.928;10.066;2022-12-20T10:35:39;6.30;99.90
8896;DHT22;4484;48.928;10.066;2022-12-20T10:38:09;6.30;99.90
8896;DHT22;4484;48.928;10.066;2022-12-20T10:40:41;6.40;99.90
8896;DHT22;4484;48.928;10.066;2022-12-20T10:43:40;6.50;99.90
8896;DHT22;4484;48.928;10.066;2022-12-20T10:46:09;6.60;99.90
8896;DHT22;4484;48.928;10.066;2022-12-20T10:48:40;6.70;99.90
8896;DHT22;4484;48.928;10.066;2022-12-20T10:53:59;7.10;99.90
8896;DHT22;4484;48.928;10.066;2022-12-20T10:56:31;7.40;99.90
8896;DHT22;4484;48.928;10.066;2022-12-20T10:59:00;7.90;99.90
8896;DHT22;4484;48.928;10.066;2022-12-20T11:01:30;8.20;99.90
8896;DHT22;4484;48.928;10.066;2022-12-20T11:04:02;8.80;99.90
8896;DHT22;4484;48.928;10.066;2022-12-20T11:09:23;10.00;99.90
8896;DHT22;4484;48.928;10.066;2022-12-20T11:12:05;10.30;99.90
8896;DHT22;4484;48.928;10.066;2022-12-20T11:14:35;10.30;99.90
8896;DHT22;4484;48.928;10.066;2022-12-20T11:23:10;9.70;99.90
8896;DHT22;4484;48.928;10.066;2022-12-20T11:38:49;9.00;99.90
8896;DHT22;4484;48.928;10.066;2022-12-20T11:41:43;9.00;99.90
8896;DHT22;4484;48.928;10.066;2022-12-20T11:50:18;8.70;99.90
8896;DHT22;4484;48.928;10.066;2022-12-20T11:52:53;8.60;99.90
8896;DHT22;4484;48.928;10.066;2022-12-20T11:55:35;8.40;99.90
8896;DHT22;4484;48.928;10.066;2022-12-20T11:58:24;8.40;99.90
8896;DHT22;4484;48.928;10.066;2022-12-20T12:00:53;8.30;99.90
8896;DHT22;4484;48.928;10.066;2022-12-20T12:03:45;8.20;99.90
8896;DHT22;4484;48.928;10.066;2022-12-20T12:06:17;8.20;99.90
8896;DHT22;4484;48.928;10.066;2022-12-20T12:11:36;8.20;99.90
8896;DHT22;4484;48.928;10.066;2022-12-20T12:14:49;8.20;99.90
8896;DHT22;4484;48.928;10.066;2022-12-20T12:17:53;8.30;99.90
8896;DHT22;4484;48.928;10.066;2022-12-20T12:23:21;8.30;99.90
8896;DHT22;4484;48.928;10.066;2022-12-20T12:25:50;8.30;99.90
8896;DHT22;4484;48.928;10.066;2022-12-20T12:28:19;8.20;99.90
8896;DHT22;4484;48.928;10.066;2022-12-20T12:30:55;8.20;99.90
8896;DHT22;4484;48.928;10.066;2022-12-20T12:33:32;8.20;99.90
8896;DHT22;4484;48.928;10.066;2022-12-20T12:46:59;8.00;99.90
8896;DHT22;4484;48.928;10.066;2022-12-20T12:49:28;7.90;99.90
8896;DHT22;4484;48.928;10.066;2022-12-20T12:51:59;7.90;99.90
8896;DHT22;4484;48.928;10.066;2022-12-20T12:54:38;7.90;99.90
8896;DHT22;4484;48.928;10.066;2022-12-20T12:57:15;7.90;99.90
8896;DHT22;4484;48.928;10.066;2022-12-20T12:59:44;7.90;99.90
8896;DHT22;4484;48.928;10.066;2022-12-20T13:07:43;8.00;99.90
8896;DHT22;4484;48.928;10.066;2022-12-20T13:17:56;7.60;99.90
8896;DHT22;4484;48.928;10.066;2022-12-20T13:20:34;7.60;99.90
8896;DHT22;4484;48.928;10.066;2022-12-20T13:33:38;7.50;99.90
8896;DHT22;4484;48.928;10.066;2022-12-20T13:38:49;7.50;99.90
8896;DHT22;4484;48.928;10.066;2022-12-20T13:41:36;7.60;99.90
8896;DHT22;4484;48.928;10.066;2022-12-20T13:49:38;7.30;99.90
8896;DHT22;4484;48.928;10.066;2022-12-20T13:52:37;7.30;99.90
8896;DHT22;4484;48.928;10.066;2022-12-20T13:55:30;7.20;99.90
8896;DHT22;4484;48.928;10.066;2022-12-20T13:58:20;7.20;99.90
8896;DHT22;4484;48.928;10.066;2022-12-20T14:00:49;7.20;99.90
8896;DHT22;4484;48.928;10.066;2022-12-20T14:03:26;7.20;99.90
8896;DHT22;4484;48.928;10.066;2022-12-20T14:06:00;7.30;99.90
8896;DHT22;4484;48.928;10.066;2022-12-20T14:08:33;7.20;99.90
8896;DHT22;4484;48.928;10.066;2022-12-20T14:11:30;7.20;99.90
8896;DHT22;4484;48.928;10.066;2022-12-20T14:14:02;7.10;99.90
8896;DHT22;4484;48.928;10.066;2022-12-20T14:16:31;7.00;99.90
8896;DHT22;4484;48.928;10.066;2022-12-20T14:21:29;6.90;99.90
8896;DHT22;4484;48.928;10.066;2022-12-20T14:23:57;6.80;99.90
8896;DHT22;4484;48.928;10.066;2022-12-20T14:26:28;6.70;99.90
8896;DHT22;4484;48.928;10.066;2022-12-20T14:28:57;6.70;99.90
8896;DHT22;4484;48.928;10.066;2022-12-20T14:34:05;6.60;99.90
8896;DHT22;4484;48.928;10.066;2022-12-20T14:36:43;6.50;99.90
8896;DHT22;4484;48.928;10.066;2022-12-20T14:39:33;6.40;99.90
8896;DHT22;4484;48.928;10.066;2022-12-20T14:44:32;6.30;99.90
8896;DHT22;4484;48.928;10.066;2022-12-20T14:47:15;6.20;99.90
8896;DHT22;4484;48.928;10.066;2022-12-20T14:49:56;6.20;99.90
8896;DHT22;4484;48.928;10.066;2022-12-20T14:52:37;6.10;99.90
8896;DHT22;4484;48.928;10.066;2022-12-20T14:55:07;6.10;99.90
8896;DHT22;4484;48.928;10.066;2022-12-20T14:57:45;6.10;99.90
8896;DHT22;4484;48.928;10.066;2022-12-20T15:00:14;6.10;99.90
8896;DHT22;4484;48.928;10.066;2022-12-20T15:13:36;5.80;99.90
8896;DHT22;4484;48.928;10.066;2022-12-20T15:16:12;5.80;99.90
8896;DHT22;4484;48.928;10.066;2022-12-20T15:18:40;5.70;99.90
8896;DHT22;4484;48.928;10.066;2022-12-20T15:21:36;5.80;99.90
8896;DHT22;4484;48.928;10.066;2022-12-20T15:24:19;5.80;99.90
8896;DHT22;4484;48.928;10.066;2022-12-20T15:26:48;5.70;99.90
8896;DHT22;4484;48.928;10.066;2022-12-20T15:29:24;5.70;99.90
8896;DHT22;4484;48.928;10.066;2022-12-20T15:31:54;5.60;99.90
8896;DHT22;4484;48.928;10.066;2022-12-20T15:36:55;5.50;99.90
8896;DHT22;4484;48.928;10.066;2022-12-20T15:39:26;5.50;99.90
8896;DHT22;4484;48.928;10.066;2022-12-20T15:41:53;5.50;99.90
8896;DHT22;4484;48.928;10.066;2022-12-20T15:44:24;5.50;99.90
8896;DHT22;4484;48.928;10.066;2022-12-20T15:46:52;5.50;99.90
8896;DHT22;4484;48.928;10.066;2022-12-20T15:49:22;5.40;99.90
8896;DHT22;4484;48.928;10.066;2022-12-20T15:51:51;5.40;99.90
8896;DHT22;4484;48.928;10.066;2022-12-20T15:56:54;5.40;99.90
8896;DHT22;4484;48.928;10.066;2022-12-20T15:59:21;5.40;99.90
8896;DHT22;4484;48.928;10.066;2022-12-20T16:02:23;5.40;99.90
8896;DHT22;4484;48.928;10.066;2022-12-20T16:04:53;5.40;99.90
8896;DHT22;4484;48.928;10.066;2022-12-20T16:07:21;5.30;99.90
8896;DHT22;4484;48.928;10.066;2022-12-20T16:09:52;5.20;99.90
8896;DHT22;4484;48.928;10.066;2022-12-20T16:14:46;5.00;99.90
8896;DHT22;4484;48.928;10.066;2022-12-20T16:17:14;5.00;99.90
8896;DHT22;4484;48.928;10.066;2022-12-20T16:19:42;4.90;99.90
8896;DHT22;4484;48.928;10.066;2022-12-20T16:22:18;4.80;99.90
8896;DHT22;4484;48.928;10.066;2022-12-20T16:24:45;4.70;99.90
8896;DHT22;4484;48.928;10.066;2022-12-20T16:27:12;4.70;99.90
8896;DHT22;4484;48.928;10.066;2022-12-20T16:29:39;4.60;99.90
8896;DHT22;4484;48.928;10.066;2022-12-20T16:32:14;4.50;99.90
8896;DHT22;4484;48.928;10.066;2022-12-20T16:34:43;4.50;99.90
8896;DHT22;4484;48.928;10.066;2022-12-20T16:37:12;4.40;99.90
8896;DHT22;4484;48.928;10.066;2022-12-20T16:39:40;4.40;99.90
8896;DHT22;4484;48.928;10.066;2022-12-20T16:42:15;4.40;99.90
8896;DHT22;4484;48.928;10.066;2022-12-20T16:44:42;4.40;99.90
8896;DHT22;4484;48.928;10.066;2022-12-20T16:47:12;4.40;99.90
8896;DHT22;4484;48.928;10.066;2022-12-20T16:49:41;4.40;99.90
8896;DHT22;4484;48.928;10.066;2022-12-20T16:52:18;4.40;99.90
8896;DHT22;4484;48.928;10.066;2022-12-20T16:54:46;4.40;99.90
8896;DHT22;4484;48.928;10.066;2022-12-20T16:57:14;4.40;99.90
8896;DHT22;4484;48.928;10.066;2022-12-20T16:59:41;4.40;99.90
8896;DHT22;4484;48.928;10.066;2022-12-20T17:02:40;4.40;99.90
8896;DHT22;4484;48.928;10.066;2022-12-20T17:05:24;4.50;99.90
8896;DHT22;4484;48.928;10.066;2022-12-20T17:07:53;4.60;99.90
8896;DHT22;4484;48.928;10.066;2022-12-20T17:10:21;4.70;99.90
8896;DHT22;4484;48.928;10.066;2022-12-20T17:12:49;4.80;99.90
8896;DHT22;4484;48.928;10.066;2022-12-20T17:15:24;4.90;99.90
8896;DHT22;4484;48.928;10.066;2022-12-20T17:17:53;4.80;99.90
8896;DHT22;4484;48.928;10.066;2022-12-20T17:20:22;4.80;99.90
8896;DHT22;4484;48.928;10.066;2022-12-20T17:22:53;4.90;99.90
8896;DHT22;4484;48.928;10.066;2022-12-20T17:25:38;4.90;99.90
8896;DHT22;4484;48.928;10.066;2022-12-20T17:28:06;4.90;99.90
8896;DHT22;4484;48.928;10.066;2022-12-20T17:30:34;5.00;99.90
8896;DHT22;4484;48.928;10.066;2022-12-20T17:33:02;5.00;99.90
8896;DHT22;4484;48.928;10.066;2022-12-20T17:35:31;5.00;99.90
8896;DHT22;4484;48.928;10.066;2022-12-20T17:37:58;5.00;99.90
8896;DHT22;4484;48.928;10.066;2022-12-20T17:40:27;5.10;99.90
8896;DHT22;4484;48.928;10.066;2022-12-20T17:42:54;5.00;99.90
8896;DHT22;4484;48.928;10.066;2022-12-20T17:45:30;5.10;99.90
8896;DHT22;4484;48.928;10.066;2022-12-20T17:47:59;5.10;99.90
8896;DHT22;4484;48.928;10.066;2022-12-20T17:50:27;5.10;99.90
8896;DHT22;4484;48.928;10.066;2022-12-20T17:52:54;5.10;99.90
8896;DHT22;4484;48.928;10.066;2022-12-20T17:55:26;5.10;99.90
8896;DHT22;4484;48.928;10.066;2022-12-20T17:57:54;5.10;99.90
8896;DHT22;4484;48.928;10.066;2022-12-20T18:00:30;5.10;99.90
8896;DHT22;4484;48.928;10.066;2022-12-20T18:03:05;5.10;99.90
8896;DHT22;4484;48.928;10.066;2022-12-20T18:05:33;5.10;99.90
8896;DHT22;4484;48.928;10.066;2022-12-20T18:07:59;5.10;99.90
8896;DHT22;4484;48.928;10.066;2022-12-20T18:10:27;5.20;99.90
8896;DHT22;4484;48.928;10.066;2022-12-20T18:12:54;5.20;99.90
8896;DHT22;4484;48.928;10.066;2022-12-20T18:15:22;5.10;99.90
8896;DHT22;4484;48.928;10.066;2022-12-20T18:17:50;5.10;99.90
8896;DHT22;4484;48.928;10.066;2022-12-20T18:20:18;5.00;99.90
8896;DHT22;4484;48.928;10.066;2022-12-20T18:22:47;5.00;99.90
8896;DHT22;4484;48.928;10.066;2022-12-20T18:25:14;5.10;99.90
8896;DHT22;4484;48.928;10.066;2022-12-20T18:27:44;5.00;99.90
8896;DHT22;4484;48.928;10.066;2022-12-20T18:30:12;5.00;99.90
8896;DHT22;4484;48.928;10.066;2022-12-20T18:32:40;5.00;99.90
8896;DHT22;4484;48.928;10.066;2022-12-20T18:35:08;4.90;99.90
8896;DHT22;4484;48.928;10.066;2022-12-20T18:37:36;5.00;99.90
8896;DHT22;4484;48.928;10.066;2022-12-20T18:40:03;5.00;99.90
8896;DHT22;4484;48.928;10.066;2022-12-20T18:42:30;5.00;99.90
8896;DHT22;4484;48.928;10.066;2022-12-20T18:44:57;5.00;99.90
8896;DHT22;4484;48.928;10.066;2022-12-20T18:47:24;5.00;99.90
8896;DHT22;4484;48.928;10.066;2022-12-20T18:49:51;5.00;99.90
8896;DHT22;4484;48.928;10.066;2022-12-20T18:52:20;4.90;99.90
8896;DHT22;4484;48.928;10.066;2022-12-20T18:54:47;4.90;99.90
8896;DHT22;4484;48.928;10.066;2022-12-20T18:57:15;4.80;99.90